Terminal Aerodrome Forecast
Issued by NWS

Home | Current Version | Previous Version | Text Only | Print | Product List | Glossary On
Versions: 1 2 3 4 5 6 7 8 9 10 11 12 13 14 15 16 17 18 19 20
351
FTUS45 KVEF 220115 AAA
TAFBIH
TAF AMD
KBIH 220115Z 2201/2224 VRB06KT P6SM VCTS SCT050CB OVC080
      TEMPO 2201/2203 -SHRA BKN040 OVC070
     FM220300 34008KT P6SM SCT100 BKN150
     FM222000 14007G14KT P6SM SCT100=

USA.gov is the U.S. government's official web portal to all federal, state and local government web resources and services.